Tingis — CNA4486 — position and weather

sailwx.info

Track history (hours):
 
Tides and Currents Weather Stations Pressure Air Temp Water Temp Dewpoint Dewpoint Depression Visibility Wind Speed Wind Dir Waves Ship Positions

Tingis

Last reported at 2018-Jul-11 15:49 UTC. Time now 2018-Jul-19 17:10 UTC.
Position N 35°57' W 005°15'.
Warning: this ship's position is 8 days out of date.

Length 119 m; draft 7.2 m.

Type: Ship. MMSI: 242924000.

Date/timePositionNaut miles runAvg speedWind from/ knotsBaromVisibWave heightAir tempDewpointWater temp
2018-Jul-11 15:49N 35°57' W 005°15'414.3
2018-Jul-11 15:30N 35°58' W 005°21'9 0.4
2018-Jul-10 18:55N 35°54' W 005°30'5 0.1
2018-Jul-08 20:44N 35°52' W 005°35'610.0
2018-Jul-08 20:07N 35°56' W 005°29'111.4
2018-Jul-08 20:00N 35°57' W 005°29'5 9.7
2018-Jul-08 19:30N 36°00' W 005°24'510.6
2018-Jul-08 19:00N 36°01' W 005°18'510.5
2018-Jul-08 18:30N 36°03' W 005°11'  
2018-Jul-06 07:07N 35°57' W 005°14'214.4
2018-Jul-06 07:00N 35°58' W 005°16'713.6
2018-Jul-06 06:30N 35°57' W 005°25'  
Track history (hours):
 
Tides and Currents Weather Stations Pressure Air Temp Water Temp Dewpoint Dewpoint Depression Visibility Wind Speed Wind Dir Waves Ship Positions

Tingis

Last reported at 2018-Jul-11 15:49 UTC. Time now 2018-Jul-19 17:10 UTC.
Position N 35°57' W 005°15'.
Warning: this ship's position is 8 days out of date.

Length 119 m; draft 7.2 m.

Type: Ship. MMSI: 242924000.

Date/timePositionNaut miles runAvg speedWind from/ knotsBaromVisibWave heightAir tempDewpointWater temp
2018-Jul-11 15:49N 35°57' W 005°15'414.3
2018-Jul-11 15:30N 35°58' W 005°21'9 0.4
2018-Jul-10 18:55N 35°54' W 005°30'5 0.1
2018-Jul-08 20:44N 35°52' W 005°35'610.0
2018-Jul-08 20:07N 35°56' W 005°29'111.4
2018-Jul-08 20:00N 35°57' W 005°29'5 9.7
2018-Jul-08 19:30N 36°00' W 005°24'510.6
2018-Jul-08 19:00N 36°01' W 005°18'510.5
2018-Jul-08 18:30N 36°03' W 005°11'  
2018-Jul-06 07:07N 35°57' W 005°14'214.4
2018-Jul-06 07:00N 35°58' W 005°16'713.6
2018-Jul-06 06:30N 35°57' W 005°25'  

Dump ship's entire track history